createdAt,value
2023-05-23T00:02:02.183Z,100.00
2023-05-23T00:04:29.235Z,100.00
2023-05-23T00:06:56.723Z,100.00
2023-05-23T00:09:23.750Z,100.00
2023-05-23T00:11:50.626Z,100.00
2023-05-23T00:14:18.103Z,100.00
2023-05-23T00:19:16.746Z,100.00
2023-05-23T00:21:51.553Z,100.00
2023-05-23T00:24:19.107Z,100.00
2023-05-23T00:26:46.743Z,100.00
2023-05-23T00:29:16.651Z,100.00
2023-05-23T00:31:47.842Z,100.00
2023-05-23T00:34:20.295Z,100.00
2023-05-23T00:36:50.733Z,100.00
2023-05-23T00:39:20.987Z,100.00
2023-05-23T00:41:52.238Z,100.00
2023-05-23T00:44:20.689Z,100.00
2023-05-23T00:46:52.893Z,100.00
2023-05-23T00:49:20.817Z,100.00
2023-05-23T00:51:49.933Z,100.00
2023-05-23T00:54:40.893Z,100.00
2023-05-23T00:57:07.893Z,100.00
2023-05-23T00:59:37.426Z,100.00
2023-05-23T01:02:04.564Z,100.00
2023-05-23T01:04:34.508Z,100.00
2023-05-23T01:07:02.027Z,100.00
2023-05-23T01:09:29.735Z,100.00
2023-05-23T01:12:01.777Z,100.00
2023-05-23T01:15:06.713Z,100.00
2023-05-23T01:18:04.522Z,100.00
2023-05-23T01:20:49.582Z,100.00
2023-05-23T01:24:09.090Z,100.00
2023-05-23T01:26:58.582Z,100.00
2023-05-23T01:29:32.213Z,100.00
2023-05-23T01:32:01.152Z,100.00
2023-05-23T01:34:29.386Z,100.00
2023-05-23T01:36:56.715Z,100.00
2023-05-23T01:39:24.417Z,100.00
2023-05-23T01:41:53.419Z,100.00
2023-05-23T01:44:21.658Z,100.00
2023-05-23T01:46:49.078Z,100.00
2023-05-23T01:49:17.763Z,100.00
2023-05-23T01:51:46.073Z,100.00
2023-05-23T01:54:14.667Z,100.00
2023-05-23T01:56:43.257Z,100.00
2023-05-23T01:59:10.198Z,100.00
2023-05-23T02:01:38.901Z,100.00
2023-05-23T02:04:05.858Z,100.00
2023-05-23T02:06:32.865Z,100.00
2023-05-23T02:08:59.960Z,100.00
2023-05-23T02:11:27.090Z,100.00
2023-05-23T02:13:53.941Z,100.00
2023-05-23T02:16:21.793Z,100.00
2023-05-23T02:18:49.429Z,100.00
2023-05-23T02:21:16.347Z,100.00
2023-05-23T02:23:43.214Z,100.00
2023-05-23T02:26:10.111Z,100.00
2023-05-23T02:28:37.550Z,100.00
2023-05-23T02:31:04.495Z,100.00
2023-05-23T02:33:31.425Z,100.00
2023-05-23T02:35:58.318Z,100.00
2023-05-23T02:38:27.030Z,100.00
2023-05-23T02:40:54.018Z,100.00
2023-05-23T02:43:20.992Z,100.00
2023-05-23T02:45:47.854Z,100.00
2023-05-23T02:48:14.764Z,100.00
2023-05-23T02:50:41.743Z,100.00
2023-05-23T02:53:08.596Z,100.00
2023-05-23T02:55:35.491Z,100.00
2023-05-23T02:58:05.904Z,100.00
2023-05-23T03:00:33.134Z,100.00
2023-05-23T03:03:00.161Z,100.00
2023-05-23T03:05:27.095Z,100.00
2023-05-23T03:07:54.908Z,100.00
2023-05-23T03:10:22.806Z,100.00
2023-05-23T03:12:49.683Z,100.00
2023-05-23T03:15:16.613Z,100.00
2023-05-23T03:17:43.615Z,100.00
2023-05-23T03:20:11.431Z,100.00
2023-05-23T03:22:38.348Z,100.00
2023-05-23T03:25:05.956Z,100.00
2023-05-23T03:27:32.824Z,100.00
2023-05-23T03:29:59.657Z,100.00
2023-05-23T03:32:26.652Z,100.00
2023-05-23T03:34:53.578Z,100.00
2023-05-23T03:37:20.440Z,100.00
2023-05-23T03:39:47.276Z,100.00
2023-05-23T03:42:14.127Z,100.00
2023-05-23T03:44:40.992Z,100.00
2023-05-23T03:47:07.824Z,100.00
2023-05-23T03:49:34.876Z,100.00
2023-05-23T03:52:01.726Z,100.00
2023-05-23T03:54:28.595Z,100.00
2023-05-23T03:56:55.632Z,100.00
2023-05-23T03:59:22.505Z,100.00
2023-05-23T04:01:49.341Z,100.00
2023-05-23T04:04:17.485Z,100.00
2023-05-23T04:06:44.700Z,100.00
2023-05-23T04:09:11.533Z,100.00
2023-05-23T04:11:38.369Z,100.00
2023-05-23T04:14:05.293Z,100.00
2023-05-23T04:16:33.572Z,100.00
2023-05-23T04:19:00.850Z,100.00
2023-05-23T04:21:28.608Z,100.00
2023-05-23T04:23:56.383Z,100.00
2023-05-23T04:26:23.323Z,100.00
2023-05-23T04:28:54.372Z,100.00
2023-05-23T04:31:22.600Z,100.00
2023-05-23T04:33:49.643Z,100.00
2023-05-23T04:36:17.060Z,100.00
2023-05-23T04:38:43.948Z,100.00
2023-05-23T04:41:10.886Z,100.00
2023-05-23T04:43:42.584Z,100.00
2023-05-23T04:46:10.399Z,100.00
2023-05-23T04:48:38.930Z,100.00
2023-05-23T04:51:09.021Z,100.00
2023-05-23T04:53:37.150Z,100.00
2023-05-23T04:56:04.170Z,100.00
2023-05-23T04:58:32.054Z,100.00
2023-05-23T05:00:59.025Z,100.00
2023-05-23T05:03:26.595Z,100.00
2023-05-23T05:05:53.973Z,100.00
2023-05-23T05:08:20.831Z,100.00
2023-05-23T05:10:47.950Z,100.00
2023-05-23T05:13:14.988Z,100.00
2023-05-23T05:15:42.732Z,100.00
2023-05-23T05:18:09.683Z,100.00
2023-05-23T05:20:36.575Z,100.00
2023-05-23T05:23:03.575Z,100.00
2023-05-23T05:25:32.503Z,100.00
2023-05-23T05:28:06.199Z,100.00
2023-05-23T05:30:36.947Z,100.00
2023-05-23T05:33:05.395Z,100.00
2023-05-23T05:35:32.794Z,100.00
2023-05-23T05:38:00.971Z,100.00
2023-05-23T05:40:27.833Z,100.00
2023-05-23T05:42:54.700Z,100.00
2023-05-23T05:45:21.557Z,100.00
2023-05-23T05:47:48.461Z,100.00
2023-05-23T05:50:15.510Z,100.00
2023-05-23T05:52:42.583Z,100.00
2023-05-23T05:55:11.694Z,100.00
2023-05-23T05:57:40.100Z,100.00
2023-05-23T06:00:15.131Z,100.00
2023-05-23T06:02:51.696Z,100.00
2023-05-23T06:05:19.081Z,100.00
2023-05-23T06:07:50.092Z,100.00
2023-05-23T06:10:17.145Z,100.00
2023-05-23T06:12:45.784Z,100.00
2023-05-23T06:15:14.858Z,100.00
2023-05-23T06:17:42.574Z,100.00
2023-05-23T06:20:10.108Z,100.00
2023-05-23T06:22:37.411Z,100.00
2023-05-23T06:25:06.991Z,100.00
2023-05-23T06:27:33.933Z,100.00
2023-05-23T06:30:00.869Z,100.00
2023-05-23T06:32:27.776Z,100.00
2023-05-23T06:34:54.667Z,100.00
2023-05-23T06:37:21.588Z,100.00
2023-05-23T06:39:48.496Z,100.00
2023-05-23T06:42:16.701Z,100.00
2023-05-23T06:44:43.663Z,100.00
2023-05-23T06:47:10.683Z,100.00
2023-05-23T06:49:37.672Z,100.00
2023-05-23T06:52:04.829Z,100.00
2023-05-23T06:54:31.823Z,100.00
2023-05-23T06:56:58.741Z,100.00
2023-05-23T06:59:25.843Z,100.00
2023-05-23T07:01:52.733Z,100.00
2023-05-23T07:04:19.643Z,100.00
2023-05-23T07:06:46.726Z,100.00
2023-05-23T07:09:13.848Z,100.00
2023-05-23T07:11:41.398Z,100.00
2023-05-23T07:14:08.288Z,100.00
2023-05-23T07:16:35.260Z,100.00
2023-05-23T07:19:03.649Z,100.00
2023-05-23T07:21:31.182Z,100.00
2023-05-23T07:23:58.090Z,100.00
2023-05-23T07:26:24.997Z,100.00
2023-05-23T07:28:51.914Z,100.00
2023-05-23T07:31:19.135Z,100.00
2023-05-23T07:33:46.083Z,100.00
2023-05-23T07:36:13.001Z,100.00
2023-05-23T07:38:39.990Z,100.00
2023-05-23T07:41:11.983Z,100.00
2023-05-23T07:43:39.929Z,100.00
2023-05-23T07:46:07.136Z,100.00
2023-05-23T07:48:34.152Z,100.00
2023-05-23T07:51:01.450Z,100.00
2023-05-23T07:53:28.406Z,100.00
2023-05-23T07:55:55.385Z,100.00
2023-05-23T07:58:23.428Z,100.00
2023-05-23T08:00:52.675Z,100.00
2023-05-23T08:03:20.098Z,100.00
2023-05-23T08:05:47.663Z,100.00
2023-05-23T08:08:14.642Z,100.00
2023-05-23T08:10:41.880Z,100.00
2023-05-23T08:13:11.742Z,100.00
2023-05-23T08:15:38.699Z,100.00
2023-05-23T08:18:06.183Z,100.00
2023-05-23T08:20:33.310Z,100.00
2023-05-23T08:23:01.337Z,100.00
2023-05-23T08:25:30.753Z,100.00
2023-05-23T08:28:01.558Z,100.00
2023-05-23T08:30:29.647Z,100.00
2023-05-23T08:35:48.004Z,100.00
2023-05-23T08:38:14.994Z,100.00
2023-05-23T08:40:50.928Z,100.00
2023-05-23T08:43:19.417Z,100.00
2023-05-23T08:45:47.296Z,100.00
2023-05-23T08:48:15.611Z,100.00
2023-05-23T08:50:47.504Z,100.00
2023-05-23T08:53:21.907Z,100.00
2023-05-23T08:55:51.493Z,100.00
2023-05-23T08:58:25.111Z,100.00
2023-05-23T09:00:53.924Z,100.00
2023-05-23T09:03:21.392Z,100.00
2023-05-23T09:05:50.281Z,100.00
2023-05-23T09:08:17.364Z,100.00
2023-05-23T09:10:44.293Z,100.00
2023-05-23T09:13:11.228Z,100.00
2023-05-23T09:15:38.916Z,100.00
2023-05-23T09:18:05.975Z,100.00
2023-05-23T09:20:33.948Z,100.00
2023-05-23T09:23:03.517Z,100.00
2023-05-23T09:25:30.697Z,100.00
2023-05-23T09:28:01.669Z,100.00
2023-05-23T09:30:28.865Z,100.00
2023-05-23T09:33:04.713Z,100.00
2023-05-23T09:35:32.793Z,99.80
2023-05-23T09:37:59.830Z,100.00
2023-05-23T09:40:32.357Z,100.00
2023-05-23T09:43:04.961Z,99.71
2023-05-23T09:45:33.253Z,98.57
2023-05-23T09:48:00.259Z,98.89
2023-05-23T09:50:34.428Z,97.29
2023-05-23T09:53:01.907Z,98.55
2023-05-23T09:55:28.933Z,96.96
2023-05-23T09:57:59.081Z,97.44
2023-05-23T10:00:26.236Z,98.66
2023-05-23T10:03:14.769Z,95.91
2023-05-23T10:05:53.880Z,93.09
2023-05-23T10:08:47.293Z,93.61
2023-05-23T10:11:14.095Z,93.46
2023-05-23T10:13:50.432Z,93.07
2023-05-23T10:17:00.411Z,91.71
2023-05-23T10:19:36.292Z,91.50
2023-05-23T10:22:07.607Z,90.80
2023-05-23T10:24:36.510Z,90.26
2023-05-23T10:27:04.211Z,90.27
2023-05-23T10:29:34.050Z,90.22
2023-05-23T10:32:19.989Z,91.32
2023-05-23T10:35:04.789Z,92.04
2023-05-23T10:37:48.811Z,93.39
2023-05-23T10:40:21.557Z,92.52
2023-05-23T10:43:19.242Z,92.22
2023-05-23T10:45:47.239Z,92.96
2023-05-23T10:48:28.976Z,92.00
2023-05-23T10:51:10.035Z,93.83
2023-05-23T10:53:39.776Z,92.59
2023-05-23T10:56:08.497Z,92.13
2023-05-23T10:58:39.048Z,89.15
2023-05-23T11:01:08.394Z,89.07
2023-05-23T11:03:39.235Z,87.76
2023-05-23T11:06:06.721Z,90.14
2023-05-23T11:08:48.380Z,88.60
2023-05-23T11:11:16.231Z,90.02
2023-05-23T11:13:57.081Z,88.50
2023-05-23T11:16:33.368Z,88.80
2023-05-23T11:19:18.874Z,89.71
2023-05-23T11:22:18.070Z,90.75
2023-05-23T11:25:12.476Z,90.33
2023-05-23T11:27:41.860Z,88.93
2023-05-23T11:30:16.068Z,89.53
2023-05-23T11:32:52.070Z,89.64
2023-05-23T11:35:19.493Z,86.66
2023-05-23T11:37:47.364Z,85.94
2023-05-23T11:40:27.337Z,84.64
2023-05-23T11:42:55.402Z,85.30
2023-05-23T11:45:27.195Z,83.61
2023-05-23T11:47:54.554Z,81.35
2023-05-23T11:50:21.855Z,81.34
2023-05-23T11:52:51.803Z,79.57
2023-05-23T11:55:23.484Z,79.59
2023-05-23T11:57:52.087Z,79.80
2023-05-23T12:00:19.901Z,75.93
2023-05-23T12:02:49.181Z,75.91
2023-05-23T12:05:16.855Z,75.74
2023-05-23T12:07:50.013Z,75.95
2023-05-23T12:10:18.382Z,75.28
2023-05-23T12:12:45.709Z,75.35
2023-05-23T12:15:13.644Z,75.35
2023-05-23T12:17:47.123Z,76.15
2023-05-23T12:20:17.137Z,77.82
2023-05-23T12:22:44.249Z,75.47
2023-05-23T12:25:11.561Z,75.23
2023-05-23T12:27:42.049Z,75.00
2023-05-23T12:30:16.545Z,74.10
2023-05-23T12:32:45.880Z,74.88
2023-05-23T12:35:15.312Z,73.64
2023-05-23T12:37:46.085Z,75.10
2023-05-23T12:40:19.971Z,73.81
2023-05-23T12:42:55.574Z,72.12
2023-05-23T12:45:37.093Z,71.61
2023-05-23T12:48:05.554Z,72.19
2023-05-23T12:50:32.535Z,71.64
2023-05-23T12:52:59.952Z,71.59
2023-05-23T12:55:26.858Z,69.84
2023-05-23T12:57:53.841Z,68.14
2023-05-23T13:00:22.057Z,67.65
2023-05-23T13:02:50.449Z,67.27
2023-05-23T13:05:17.764Z,67.69
2023-05-23T13:07:44.864Z,67.60
2023-05-23T13:10:12.053Z,67.74
2023-05-23T13:12:39.048Z,68.08
2023-05-23T13:15:07.311Z,68.04
2023-05-23T13:17:34.328Z,66.90
2023-05-23T13:20:02.083Z,65.38
2023-05-23T13:22:29.430Z,64.90
2023-05-23T13:24:56.669Z,66.54
2023-05-23T13:27:23.643Z,66.32
2023-05-23T13:29:50.655Z,64.97
2023-05-23T13:32:17.793Z,62.78
2023-05-23T13:34:44.697Z,62.60
2023-05-23T13:37:11.625Z,63.06
2023-05-23T13:39:38.597Z,62.15
2023-05-23T13:42:06.154Z,63.46
2023-05-23T13:44:33.109Z,62.78
2023-05-23T13:47:14.249Z,64.85
2023-05-23T13:49:42.463Z,61.93
2023-05-23T13:52:09.728Z,62.38
2023-05-23T13:54:36.946Z,61.59
2023-05-23T13:57:04.153Z,61.05
2023-05-23T13:59:31.130Z,60.18
2023-05-23T14:01:58.165Z,59.14
2023-05-23T14:04:25.325Z,58.47
2023-05-23T14:06:52.499Z,58.48
2023-05-23T14:09:22.254Z,58.34
2023-05-23T14:11:52.404Z,59.45
2023-05-23T14:14:19.539Z,59.29
2023-05-23T14:16:47.099Z,59.38
2023-05-23T14:19:14.211Z,57.78
2023-05-23T14:21:44.043Z,57.96
2023-05-23T14:24:12.046Z,58.09
2023-05-23T14:26:39.025Z,57.90
2023-05-23T14:29:05.968Z,58.29
2023-05-23T14:31:32.995Z,58.42
2023-05-23T14:33:59.952Z,58.10
2023-05-23T14:36:28.837Z,56.69
2023-05-23T14:38:55.914Z,55.99
2023-05-23T14:41:23.099Z,56.21
2023-05-23T14:43:50.134Z,56.27
2023-05-23T14:46:18.651Z,55.32
2023-05-23T14:48:45.731Z,57.13
2023-05-23T14:51:20.983Z,57.12
2023-05-23T14:53:57.763Z,56.18
2023-05-23T14:56:24.761Z,57.64
2023-05-23T14:58:51.876Z,57.23
2023-05-23T15:01:18.860Z,57.80
2023-05-23T15:03:46.310Z,57.36
2023-05-23T15:06:13.311Z,55.65
2023-05-23T15:08:41.521Z,53.74
2023-05-23T15:11:09.883Z,53.64
2023-05-23T15:13:36.873Z,53.93
2023-05-23T15:16:03.838Z,52.99
2023-05-23T15:18:40.382Z,53.18
2023-05-23T15:21:08.964Z,52.92
2023-05-23T15:23:36.055Z,53.27
2023-05-23T15:26:02.968Z,53.29
2023-05-23T15:28:29.889Z,53.31
2023-05-23T15:30:57.432Z,53.43
2023-05-23T15:33:24.413Z,53.99
2023-05-23T15:35:51.929Z,52.78
2023-05-23T15:38:20.145Z,51.88
2023-05-23T15:40:49.078Z,50.11
2023-05-23T15:43:16.092Z,49.54
2023-05-23T15:45:43.230Z,49.27
2023-05-23T15:48:10.267Z,49.68
2023-05-23T15:50:37.275Z,49.31
2023-05-23T15:53:04.334Z,47.57
2023-05-23T15:55:31.269Z,47.58
2023-05-23T15:57:58.156Z,46.02
2023-05-23T16:00:25.404Z,46.32
2023-05-23T16:02:52.371Z,44.80
2023-05-23T16:05:19.433Z,45.73
2023-05-23T16:07:46.364Z,46.16
2023-05-23T16:10:14.539Z,48.08
2023-05-23T16:12:41.444Z,49.76
2023-05-23T16:15:09.142Z,50.53
2023-05-23T16:17:36.068Z,51.61
2023-05-23T16:20:04.450Z,51.94
2023-05-23T16:22:31.553Z,51.98
2023-05-23T16:24:58.450Z,52.44
2023-05-23T16:27:25.367Z,51.20
2023-05-23T16:29:52.324Z,51.07
2023-05-23T16:32:19.250Z,52.27
2023-05-23T16:34:51.839Z,53.52
2023-05-23T16:37:21.150Z,54.69
2023-05-23T16:39:48.102Z,55.67
2023-05-23T16:42:15.272Z,55.52
2023-05-23T16:44:42.438Z,55.46
2023-05-23T16:47:09.410Z,55.10
2023-05-23T16:49:36.318Z,54.75
2023-05-23T16:52:03.437Z,55.41
2023-05-23T16:54:30.363Z,55.07
2023-05-23T16:56:58.486Z,55.55
2023-05-23T16:59:25.394Z,54.57
2023-05-23T17:01:52.415Z,54.10
2023-05-23T17:04:20.633Z,54.14
2023-05-23T17:06:47.630Z,54.34
2023-05-23T17:09:14.758Z,54.83
2023-05-23T17:11:41.700Z,53.93
2023-05-23T17:14:08.628Z,53.27
2023-05-23T17:16:35.621Z,53.07
2023-05-23T17:19:02.571Z,53.57
2023-05-23T17:21:29.582Z,54.08
2023-05-23T17:23:56.555Z,53.14
2023-05-23T17:26:23.518Z,53.11
2023-05-23T17:28:50.444Z,53.32
2023-05-23T17:31:18.452Z,53.77
2023-05-23T17:33:46.665Z,53.71
2023-05-23T17:36:13.685Z,54.44
2023-05-23T17:38:40.606Z,55.24
2023-05-23T17:41:08.061Z,55.16
2023-05-23T17:43:34.995Z,55.30
2023-05-23T17:46:01.904Z,55.59
2023-05-23T17:48:45.618Z,56.27
2023-05-23T17:51:14.075Z,56.67
2023-05-23T17:53:41.907Z,57.68
2023-05-23T17:56:09.660Z,57.90
2023-05-23T17:58:38.423Z,58.25
2023-05-23T18:01:06.290Z,58.54
2023-05-23T18:03:33.253Z,58.80
2023-05-23T18:06:00.273Z,58.47
2023-05-23T18:08:27.260Z,59.35
2023-05-23T18:10:54.178Z,60.25
2023-05-23T18:13:21.546Z,60.34
2023-05-23T18:15:48.472Z,60.61
2023-05-23T18:18:17.115Z,61.21
2023-05-23T18:20:44.618Z,62.11
2023-05-23T18:23:12.210Z,62.53
2023-05-23T18:25:39.169Z,62.85
2023-05-23T18:28:06.113Z,63.81
2023-05-23T18:30:33.823Z,64.47
2023-05-23T18:33:01.124Z,63.40
2023-05-23T18:35:28.462Z,63.76
2023-05-23T18:37:55.489Z,65.07
2023-05-23T18:40:24.280Z,65.02
2023-05-23T18:42:51.530Z,65.06
2023-05-23T18:45:18.480Z,64.94
2023-05-23T18:47:45.507Z,65.54
2023-05-23T18:50:13.561Z,66.27
2023-05-23T18:52:40.986Z,65.87
2023-05-23T18:55:08.831Z,66.11
2023-05-23T18:57:35.868Z,66.86
2023-05-23T19:00:04.933Z,67.25
2023-05-23T19:02:32.216Z,67.86
2023-05-23T19:04:59.205Z,68.57
2023-05-23T19:07:26.138Z,68.76
2023-05-23T19:09:53.070Z,69.79
2023-05-23T19:12:20.211Z,69.09
2023-05-23T19:14:47.318Z,69.28
2023-05-23T19:17:14.227Z,69.96
2023-05-23T19:19:41.186Z,70.34
2023-05-23T19:22:08.266Z,71.05
2023-05-23T19:24:35.220Z,70.73
2023-05-23T19:27:02.611Z,71.71
2023-05-23T19:29:29.602Z,71.85
2023-05-23T19:31:57.729Z,72.82
2023-05-23T19:34:24.693Z,73.33
2023-05-23T19:36:51.714Z,73.37
2023-05-23T19:39:18.715Z,73.07
2023-05-23T19:41:45.719Z,73.73
2023-05-23T19:44:13.407Z,74.95
2023-05-23T19:46:40.342Z,74.55
2023-05-23T19:49:10.916Z,75.10
2023-05-23T19:51:38.006Z,75.48
2023-05-23T19:54:05.146Z,76.16
2023-05-23T19:56:34.460Z,76.34
2023-05-23T19:59:01.559Z,78.05
2023-05-23T20:01:30.936Z,78.09
2023-05-23T20:03:58.000Z,79.64
2023-05-23T20:06:24.922Z,79.16
2023-05-23T20:08:51.867Z,78.42
2023-05-23T20:11:18.903Z,78.59
2023-05-23T20:13:46.029Z,79.37
2023-05-23T20:16:13.229Z,78.64
2023-05-23T20:18:42.905Z,78.82
2023-05-23T20:21:10.096Z,78.75
2023-05-23T20:23:37.069Z,80.10
2023-05-23T20:26:04.117Z,80.53
2023-05-23T20:28:31.194Z,81.92
2023-05-23T20:30:58.460Z,82.10
2023-05-23T20:33:25.492Z,83.87
2023-05-23T20:35:52.498Z,84.77
2023-05-23T20:38:20.218Z,85.94
2023-05-23T20:40:51.569Z,86.69
2023-05-23T20:43:20.713Z,86.01
2023-05-23T20:45:48.436Z,87.34
2023-05-23T20:48:16.740Z,86.97
2023-05-23T20:50:44.505Z,86.37
2023-05-23T20:53:11.493Z,86.17
2023-05-23T20:55:38.417Z,86.95
2023-05-23T20:58:05.365Z,86.44
2023-05-23T21:00:32.326Z,86.07
2023-05-23T21:02:59.381Z,86.97
2023-05-23T21:05:26.590Z,87.28
2023-05-23T21:07:54.578Z,87.37
2023-05-23T21:10:21.632Z,88.01
2023-05-23T21:12:50.926Z,88.33
2023-05-23T21:15:18.659Z,89.44
2023-05-23T21:17:45.947Z,90.06
2023-05-23T21:20:14.058Z,89.49
2023-05-23T21:22:41.437Z,89.85
2023-05-23T21:25:08.893Z,90.35
2023-05-23T21:27:36.079Z,89.92
2023-05-23T21:30:04.447Z,90.54
2023-05-23T21:32:31.565Z,90.28
2023-05-23T21:34:58.694Z,90.28
2023-05-23T21:37:25.663Z,91.84
2023-05-23T21:39:52.855Z,92.81
2023-05-23T21:42:21.232Z,93.89
2023-05-23T21:44:48.454Z,94.08
2023-05-23T21:47:15.344Z,94.72
2023-05-23T21:49:42.374Z,95.61
2023-05-23T21:52:09.376Z,96.06
2023-05-23T21:54:36.470Z,96.61
2023-05-23T21:57:03.511Z,96.65
2023-05-23T21:59:30.511Z,96.96
2023-05-23T22:01:58.177Z,98.49
2023-05-23T22:04:25.136Z,98.61
2023-05-23T22:06:52.655Z,99.23
2023-05-23T22:09:19.700Z,99.26
2023-05-23T22:11:46.657Z,99.71
2023-05-23T22:14:13.570Z,100.00
2023-05-23T22:16:40.708Z,99.92
2023-05-23T22:19:12.714Z,99.73
2023-05-23T22:21:39.767Z,99.35
2023-05-23T22:24:06.933Z,99.64
2023-05-23T22:26:33.896Z,100.00
2023-05-23T22:29:01.016Z,100.00
2023-05-23T22:31:29.179Z,100.00
2023-05-23T22:33:56.391Z,100.00
2023-05-23T22:36:23.618Z,99.62
2023-05-23T22:38:50.824Z,99.49
2023-05-23T22:41:17.878Z,99.86
2023-05-23T22:43:44.862Z,99.28
2023-05-23T22:46:11.825Z,98.49
2023-05-23T22:48:39.291Z,98.74
2023-05-23T22:51:08.134Z,99.29
2023-05-23T22:53:35.088Z,99.96
2023-05-23T22:56:02.711Z,99.76
2023-05-23T22:58:29.603Z,99.68
2023-05-23T23:00:56.671Z,99.16
2023-05-23T23:03:23.631Z,100.00
2023-05-23T23:05:50.924Z,100.00
2023-05-23T23:08:19.561Z,100.00
2023-05-23T23:10:46.764Z,100.00
2023-05-23T23:13:16.673Z,100.00
2023-05-23T23:15:44.114Z,100.00
2023-05-23T23:18:13.895Z,100.00
2023-05-23T23:20:41.746Z,100.00
2023-05-23T23:23:08.878Z,100.00
2023-05-23T23:25:36.688Z,100.00
2023-05-23T23:28:03.802Z,100.00
2023-05-23T23:30:30.755Z,100.00
2023-05-23T23:32:57.701Z,100.00
2023-05-23T23:35:24.701Z,100.00
2023-05-23T23:37:51.643Z,100.00
2023-05-23T23:40:18.574Z,100.00
2023-05-23T23:42:45.451Z,100.00
2023-05-23T23:45:12.396Z,100.00
2023-05-23T23:47:39.385Z,100.00
2023-05-23T23:50:07.486Z,100.00
2023-05-23T23:52:37.391Z,100.00
2023-05-23T23:55:04.935Z,100.00
2023-05-23T23:57:31.950Z,100.00
2023-05-23T23:59:58.897Z,100.00
